sensor_id;sensor_type;location;lat;lon;timestamp;P1;durP1;ratioP1;P2;durP2;ratioP2
53010;SDS011;42803;55.762;38.084;2023-01-15T00:00:11;11.13;;;4.75;;
53010;SDS011;42803;55.762;38.084;2023-01-15T00:02:41;9.32;;;4.80;;
53010;SDS011;42803;55.762;38.084;2023-01-15T00:05:10;9.02;;;4.80;;
53010;SDS011;42803;55.762;38.084;2023-01-15T00:07:39;13.32;;;4.82;;
53010;SDS011;42803;55.762;38.084;2023-01-15T00:10:10;12.32;;;5.05;;
53010;SDS011;42803;55.762;38.084;2023-01-15T00:12:39;12.35;;;4.90;;
53010;SDS011;42803;55.762;38.084;2023-01-15T00:15:08;9.98;;;4.70;;
53010;SDS011;42803;55.762;38.084;2023-01-15T00:17:41;8.80;;;4.50;;
53010;SDS011;42803;55.762;38.084;2023-01-15T00:20:10;11.45;;;4.70;;
53010;SDS011;42803;55.762;38.084;2023-01-15T00:22:39;9.40;;;4.72;;
53010;SDS011;42803;55.762;38.084;2023-01-15T00:25:08;9.63;;;4.72;;
53010;SDS011;42803;55.762;38.084;2023-01-15T00:27:55;12.52;;;4.45;;
53010;SDS011;42803;55.762;38.084;2023-01-15T00:30:29;12.23;;;4.75;;
53010;SDS011;42803;55.762;38.084;2023-01-15T00:32:58;13.50;;;4.32;;
53010;SDS011;42803;55.762;38.084;2023-01-15T00:35:27;12.20;;;4.78;;
53010;SDS011;42803;55.762;38.084;2023-01-15T00:37:56;16.10;;;5.70;;
53010;SDS011;42803;55.762;38.084;2023-01-15T00:40:26;14.07;;;4.53;;
53010;SDS011;42803;55.762;38.084;2023-01-15T00:42:55;11.90;;;5.28;;
53010;SDS011;42803;55.762;38.084;2023-01-15T00:45:24;12.32;;;4.90;;
53010;SDS011;42803;55.762;38.084;2023-01-15T00:47:55;13.38;;;5.03;;
53010;SDS011;42803;55.762;38.084;2023-01-15T00:50:24;8.88;;;4.43;;
53010;SDS011;42803;55.762;38.084;2023-01-15T00:52:53;10.07;;;4.95;;
53010;SDS011;42803;55.762;38.084;2023-01-15T00:55:22;11.15;;;4.95;;
53010;SDS011;42803;55.762;38.084;2023-01-15T00:57:52;13.52;;;4.75;;
53010;SDS011;42803;55.762;38.084;2023-01-15T01:00:21;10.68;;;5.20;;
53010;SDS011;42803;55.762;38.084;2023-01-15T01:02:50;11.02;;;5.20;;
53010;SDS011;42803;55.762;38.084;2023-01-15T01:05:20;11.38;;;5.47;;
53010;SDS011;42803;55.762;38.084;2023-01-15T01:07:49;8.48;;;4.65;;
53010;SDS011;42803;55.762;38.084;2023-01-15T01:10:19;16.27;;;5.15;;
53010;SDS011;42803;55.762;38.084;2023-01-15T01:12:48;11.13;;;4.80;;
53010;SDS011;42803;55.762;38.084;2023-01-15T01:15:18;14.32;;;4.90;;
53010;SDS011;42803;55.762;38.084;2023-01-15T01:17:48;13.20;;;5.35;;
53010;SDS011;42803;55.762;38.084;2023-01-15T01:20:17;10.85;;;4.55;;
53010;SDS011;42803;55.762;38.084;2023-01-15T01:22:48;20.13;;;5.20;;
53010;SDS011;42803;55.762;38.084;2023-01-15T01:25:17;12.02;;;4.90;;
53010;SDS011;42803;55.762;38.084;2023-01-15T01:27:46;11.70;;;5.03;;
53010;SDS011;42803;55.762;38.084;2023-01-15T01:30:16;14.40;;;5.32;;
53010;SDS011;42803;55.762;38.084;2023-01-15T01:32:45;11.55;;;4.90;;
53010;SDS011;42803;55.762;38.084;2023-01-15T01:35:14;13.27;;;5.30;;
53010;SDS011;42803;55.762;38.084;2023-01-15T01:37:49;17.90;;;5.32;;
53010;SDS011;42803;55.762;38.084;2023-01-15T01:40:18;10.50;;;5.18;;
53010;SDS011;42803;55.762;38.084;2023-01-15T01:42:48;12.18;;;5.50;;
53010;SDS011;42803;55.762;38.084;2023-01-15T01:45:18;15.57;;;5.25;;
53010;SDS011;42803;55.762;38.084;2023-01-15T01:47:52;12.03;;;4.47;;
53010;SDS011;42803;55.762;38.084;2023-01-15T01:50:25;12.18;;;5.47;;
53010;SDS011;42803;55.762;38.084;2023-01-15T01:52:59;13.50;;;5.43;;
53010;SDS011;42803;55.762;38.084;2023-01-15T01:55:33;10.57;;;4.53;;
53010;SDS011;42803;55.762;38.084;2023-01-15T01:58:05;15.40;;;5.28;;
53010;SDS011;42803;55.762;38.084;2023-01-15T02:00:37;12.57;;;4.75;;
53010;SDS011;42803;55.762;38.084;2023-01-15T02:03:12;10.50;;;4.57;;
53010;SDS011;42803;55.762;38.084;2023-01-15T02:05:42;11.40;;;4.85;;
53010;SDS011;42803;55.762;38.084;2023-01-15T02:08:18;15.18;;;4.38;;
53010;SDS011;42803;55.762;38.084;2023-01-15T02:10:49;17.45;;;5.50;;
53010;SDS011;42803;55.762;38.084;2023-01-15T02:13:31;12.13;;;5.00;;
53010;SDS011;42803;55.762;38.084;2023-01-15T02:16:14;16.55;;;5.10;;
53010;SDS011;42803;55.762;38.084;2023-01-15T02:18:47;13.82;;;4.80;;
53010;SDS011;42803;55.762;38.084;2023-01-15T02:21:22;12.98;;;4.85;;
53010;SDS011;42803;55.762;38.084;2023-01-15T02:24:08;12.70;;;5.05;;
53010;SDS011;42803;55.762;38.084;2023-01-15T02:29:45;14.10;;;5.53;;
53010;SDS011;42803;55.762;38.084;2023-01-15T02:32:23;12.77;;;4.85;;
53010;SDS011;42803;55.762;38.084;2023-01-15T02:35:01;17.85;;;5.57;;
53010;SDS011;42803;55.762;38.084;2023-01-15T02:37:36;18.35;;;5.15;;
53010;SDS011;42803;55.762;38.084;2023-01-15T02:40:10;16.02;;;5.78;;
53010;SDS011;42803;55.762;38.084;2023-01-15T02:42:42;15.80;;;5.45;;
53010;SDS011;42803;55.762;38.084;2023-01-15T02:45:14;8.80;;;5.00;;
53010;SDS011;42803;55.762;38.084;2023-01-15T02:47:51;11.20;;;5.13;;
53010;SDS011;42803;55.762;38.084;2023-01-15T02:50:24;17.02;;;6.32;;
53010;SDS011;42803;55.762;38.084;2023-01-15T02:52:56;15.68;;;5.45;;
53010;SDS011;42803;55.762;38.084;2023-01-15T02:55:34;15.57;;;4.72;;
53010;SDS011;42803;55.762;38.084;2023-01-15T02:58:10;13.23;;;6.32;;
53010;SDS011;42803;55.762;38.084;2023-01-15T03:00:45;16.52;;;5.93;;
53010;SDS011;42803;55.762;38.084;2023-01-15T03:03:17;13.27;;;5.57;;
53010;SDS011;42803;55.762;38.084;2023-01-15T03:05:52;12.35;;;5.03;;
53010;SDS011;42803;55.762;38.084;2023-01-15T03:08:27;11.85;;;5.13;;
53010;SDS011;42803;55.762;38.084;2023-01-15T03:11:00;10.27;;;5.00;;
53010;SDS011;42803;55.762;38.084;2023-01-15T03:13:44;18.85;;;5.03;;
53010;SDS011;42803;55.762;38.084;2023-01-15T03:16:17;17.50;;;5.57;;
53010;SDS011;42803;55.762;38.084;2023-01-15T03:19:06;16.10;;;5.50;;
53010;SDS011;42803;55.762;38.084;2023-01-15T03:21:47;16.83;;;5.53;;
53010;SDS011;42803;55.762;38.084;2023-01-15T03:24:22;16.50;;;5.47;;
53010;SDS011;42803;55.762;38.084;2023-01-15T03:26:56;14.88;;;6.32;;
53010;SDS011;42803;55.762;38.084;2023-01-15T03:29:31;16.33;;;5.53;;
53010;SDS011;42803;55.762;38.084;2023-01-15T03:32:03;16.30;;;5.30;;
53010;SDS011;42803;55.762;38.084;2023-01-15T03:34:35;13.82;;;5.47;;
53010;SDS011;42803;55.762;38.084;2023-01-15T03:37:11;15.70;;;5.43;;
53010;SDS011;42803;55.762;38.084;2023-01-15T03:39:40;19.00;;;5.53;;
53010;SDS011;42803;55.762;38.084;2023-01-15T03:45:39;17.05;;;5.05;;
53010;SDS011;42803;55.762;38.084;2023-01-15T03:48:12;13.20;;;5.20;;
53010;SDS011;42803;55.762;38.084;2023-01-15T03:50:48;17.35;;;5.70;;
53010;SDS011;42803;55.762;38.084;2023-01-15T03:53:29;14.55;;;6.30;;
53010;SDS011;42803;55.762;38.084;2023-01-15T03:56:02;13.45;;;6.18;;
53010;SDS011;42803;55.762;38.084;2023-01-15T03:58:43;15.48;;;5.45;;
53010;SDS011;42803;55.762;38.084;2023-01-15T04:01:21;19.33;;;6.03;;
53010;SDS011;42803;55.762;38.084;2023-01-15T04:03:54;13.65;;;5.20;;
53010;SDS011;42803;55.762;38.084;2023-01-15T04:06:28;14.20;;;6.78;;
53010;SDS011;42803;55.762;38.084;2023-01-15T04:09:02;13.00;;;5.15;;
53010;SDS011;42803;55.762;38.084;2023-01-15T04:11:34;14.85;;;5.20;;
53010;SDS011;42803;55.762;38.084;2023-01-15T04:14:05;16.13;;;5.53;;
53010;SDS011;42803;55.762;38.084;2023-01-15T04:16:43;13.35;;;5.38;;
53010;SDS011;42803;55.762;38.084;2023-01-15T04:19:13;15.73;;;5.55;;
53010;SDS011;42803;55.762;38.084;2023-01-15T04:21:54;13.30;;;5.43;;
53010;SDS011;42803;55.762;38.084;2023-01-15T04:24:23;21.42;;;5.82;;
53010;SDS011;42803;55.762;38.084;2023-01-15T04:26:52;17.63;;;6.03;;
53010;SDS011;42803;55.762;38.084;2023-01-15T04:29:21;15.80;;;6.47;;
53010;SDS011;42803;55.762;38.084;2023-01-15T04:31:51;19.05;;;6.35;;
53010;SDS011;42803;55.762;38.084;2023-01-15T04:34:24;23.13;;;6.25;;
53010;SDS011;42803;55.762;38.084;2023-01-15T04:36:54;18.90;;;7.10;;
53010;SDS011;42803;55.762;38.084;2023-01-15T04:39:23;17.83;;;6.43;;
53010;SDS011;42803;55.762;38.084;2023-01-15T04:41:52;18.30;;;6.28;;
53010;SDS011;42803;55.762;38.084;2023-01-15T04:44:39;14.05;;;5.38;;
53010;SDS011;42803;55.762;38.084;2023-01-15T04:47:09;15.82;;;5.93;;
53010;SDS011;42803;55.762;38.084;2023-01-15T04:49:38;17.70;;;6.90;;
53010;SDS011;42803;55.762;38.084;2023-01-15T04:52:08;12.55;;;5.95;;
53010;SDS011;42803;55.762;38.084;2023-01-15T04:54:37;15.50;;;5.60;;
53010;SDS011;42803;55.762;38.084;2023-01-15T04:57:06;14.68;;;7.05;;
53010;SDS011;42803;55.762;38.084;2023-01-15T04:59:35;18.77;;;6.03;;
53010;SDS011;42803;55.762;38.084;2023-01-15T05:02:04;18.92;;;6.10;;
53010;SDS011;42803;55.762;38.084;2023-01-15T05:04:34;23.85;;;5.78;;
53010;SDS011;42803;55.762;38.084;2023-01-15T05:07:04;22.33;;;6.80;;
53010;SDS011;42803;55.762;38.084;2023-01-15T05:09:33;22.88;;;6.50;;
53010;SDS011;42803;55.762;38.084;2023-01-15T05:12:03;17.02;;;6.18;;
53010;SDS011;42803;55.762;38.084;2023-01-15T05:14:32;15.77;;;6.13;;
53010;SDS011;42803;55.762;38.084;2023-01-15T05:17:01;13.32;;;6.50;;
53010;SDS011;42803;55.762;38.084;2023-01-15T05:19:30;14.77;;;6.72;;
53010;SDS011;42803;55.762;38.084;2023-01-15T05:22:01;17.92;;;7.57;;
53010;SDS011;42803;55.762;38.084;2023-01-15T05:24:30;18.13;;;5.50;;
53010;SDS011;42803;55.762;38.084;2023-01-15T05:26:59;15.30;;;6.40;;
53010;SDS011;42803;55.762;38.084;2023-01-15T05:29:29;16.30;;;6.32;;
53010;SDS011;42803;55.762;38.084;2023-01-15T05:31:58;14.30;;;6.40;;
53010;SDS011;42803;55.762;38.084;2023-01-15T05:34:27;20.00;;;6.30;;
53010;SDS011;42803;55.762;38.084;2023-01-15T05:36:56;16.33;;;6.43;;
53010;SDS011;42803;55.762;38.084;2023-01-15T05:39:26;15.60;;;6.35;;
53010;SDS011;42803;55.762;38.084;2023-01-15T05:41:55;13.82;;;5.85;;
53010;SDS011;42803;55.762;38.084;2023-01-15T05:44:25;21.40;;;7.75;;
53010;SDS011;42803;55.762;38.084;2023-01-15T05:46:56;16.15;;;6.85;;
53010;SDS011;42803;55.762;38.084;2023-01-15T05:49:28;15.05;;;6.38;;
53010;SDS011;42803;55.762;38.084;2023-01-15T05:51:58;24.05;;;7.35;;
53010;SDS011;42803;55.762;38.084;2023-01-15T05:54:30;16.25;;;6.28;;
53010;SDS011;42803;55.762;38.084;2023-01-15T05:57:01;15.13;;;6.15;;
53010;SDS011;42803;55.762;38.084;2023-01-15T05:59:31;15.70;;;6.65;;
53010;SDS011;42803;55.762;38.084;2023-01-15T06:02:00;18.63;;;6.80;;
53010;SDS011;42803;55.762;38.084;2023-01-15T06:04:30;15.15;;;6.47;;
53010;SDS011;42803;55.762;38.084;2023-01-15T06:06:59;18.70;;;7.00;;
53010;SDS011;42803;55.762;38.084;2023-01-15T06:09:29;23.02;;;7.15;;
53010;SDS011;42803;55.762;38.084;2023-01-15T06:11:58;23.88;;;8.27;;
53010;SDS011;42803;55.762;38.084;2023-01-15T06:14:27;15.40;;;6.65;;
53010;SDS011;42803;55.762;38.084;2023-01-15T06:16:56;18.20;;;7.07;;
53010;SDS011;42803;55.762;38.084;2023-01-15T06:19:25;15.02;;;6.72;;
53010;SDS011;42803;55.762;38.084;2023-01-15T06:21:54;16.75;;;6.88;;
53010;SDS011;42803;55.762;38.084;2023-01-15T06:24:23;13.43;;;6.38;;
53010;SDS011;42803;55.762;38.084;2023-01-15T06:26:54;16.42;;;7.07;;
53010;SDS011;42803;55.762;38.084;2023-01-15T06:29:23;18.95;;;6.80;;
53010;SDS011;42803;55.762;38.084;2023-01-15T06:31:52;16.25;;;7.05;;
53010;SDS011;42803;55.762;38.084;2023-01-15T06:34:21;18.23;;;7.43;;
53010;SDS011;42803;55.762;38.084;2023-01-15T06:36:50;22.10;;;7.75;;
53010;SDS011;42803;55.762;38.084;2023-01-15T06:39:19;22.92;;;6.70;;
53010;SDS011;42803;55.762;38.084;2023-01-15T06:41:48;16.00;;;6.35;;
53010;SDS011;42803;55.762;38.084;2023-01-15T06:44:36;18.63;;;6.82;;
53010;SDS011;42803;55.762;38.084;2023-01-15T06:47:22;14.52;;;6.18;;
53010;SDS011;42803;55.762;38.084;2023-01-15T06:49:54;17.02;;;6.53;;
53010;SDS011;42803;55.762;38.084;2023-01-15T06:52:25;18.80;;;5.90;;
53010;SDS011;42803;55.762;38.084;2023-01-15T06:54:56;13.35;;;6.47;;
53010;SDS011;42803;55.762;38.084;2023-01-15T06:57:25;18.13;;;6.97;;
53010;SDS011;42803;55.762;38.084;2023-01-15T06:59:55;19.77;;;7.82;;
53010;SDS011;42803;55.762;38.084;2023-01-15T07:02:24;18.15;;;6.47;;
53010;SDS011;42803;55.762;38.084;2023-01-15T07:04:53;19.15;;;7.22;;
53010;SDS011;42803;55.762;38.084;2023-01-15T07:07:22;16.92;;;6.85;;
53010;SDS011;42803;55.762;38.084;2023-01-15T07:09:51;17.92;;;6.68;;
53010;SDS011;42803;55.762;38.084;2023-01-15T07:12:20;20.88;;;7.30;;
53010;SDS011;42803;55.762;38.084;2023-01-15T07:14:50;18.17;;;6.88;;
53010;SDS011;42803;55.762;38.084;2023-01-15T07:17:21;18.92;;;6.90;;
53010;SDS011;42803;55.762;38.084;2023-01-15T07:19:50;16.83;;;6.20;;
53010;SDS011;42803;55.762;38.084;2023-01-15T07:22:19;18.27;;;7.25;;
53010;SDS011;42803;55.762;38.084;2023-01-15T07:24:48;13.88;;;7.30;;
53010;SDS011;42803;55.762;38.084;2023-01-15T07:27:17;23.00;;;7.07;;
53010;SDS011;42803;55.762;38.084;2023-01-15T07:29:46;24.15;;;7.10;;
53010;SDS011;42803;55.762;38.084;2023-01-15T07:32:17;16.92;;;7.13;;
53010;SDS011;42803;55.762;38.084;2023-01-15T07:34:48;20.02;;;7.13;;
53010;SDS011;42803;55.762;38.084;2023-01-15T07:37:17;15.05;;;6.80;;
53010;SDS011;42803;55.762;38.084;2023-01-15T07:39:46;22.27;;;6.95;;
53010;SDS011;42803;55.762;38.084;2023-01-15T07:42:15;16.23;;;7.35;;
53010;SDS011;42803;55.762;38.084;2023-01-15T07:45:07;22.58;;;7.88;;
53010;SDS011;42803;55.762;38.084;2023-01-15T07:47:54;17.40;;;6.97;;
53010;SDS011;42803;55.762;38.084;2023-01-15T07:50:42;17.27;;;6.57;;
53010;SDS011;42803;55.762;38.084;2023-01-15T07:53:11;25.88;;;8.02;;
53010;SDS011;42803;55.762;38.084;2023-01-15T07:55:40;17.45;;;7.78;;
53010;SDS011;42803;55.762;38.084;2023-01-15T07:58:09;20.48;;;6.72;;
53010;SDS011;42803;55.762;38.084;2023-01-15T08:00:38;17.38;;;6.85;;
53010;SDS011;42803;55.762;38.084;2023-01-15T08:03:08;19.73;;;6.57;;
53010;SDS011;42803;55.762;38.084;2023-01-15T08:05:37;17.95;;;7.50;;
53010;SDS011;42803;55.762;38.084;2023-01-15T08:08:14;20.33;;;7.45;;
53010;SDS011;42803;55.762;38.084;2023-01-15T08:10:43;19.98;;;7.13;;
53010;SDS011;42803;55.762;38.084;2023-01-15T08:13:27;18.52;;;6.35;;
53010;SDS011;42803;55.762;38.084;2023-01-15T08:16:13;23.33;;;7.07;;
53010;SDS011;42803;55.762;38.084;2023-01-15T08:18:42;24.23;;;8.15;;
53010;SDS011;42803;55.762;38.084;2023-01-15T08:21:13;19.45;;;7.15;;
53010;SDS011;42803;55.762;38.084;2023-01-15T08:23:45;25.25;;;7.07;;
53010;SDS011;42803;55.762;38.084;2023-01-15T08:26:14;25.17;;;8.07;;
53010;SDS011;42803;55.762;38.084;2023-01-15T08:28:43;20.08;;;6.53;;
53010;SDS011;42803;55.762;38.084;2023-01-15T08:31:12;17.58;;;7.35;;
53010;SDS011;42803;55.762;38.084;2023-01-15T08:33:42;14.75;;;7.18;;
53010;SDS011;42803;55.762;38.084;2023-01-15T08:36:11;17.02;;;6.78;;
53010;SDS011;42803;55.762;38.084;2023-01-15T08:38:42;19.65;;;7.55;;
53010;SDS011;42803;55.762;38.084;2023-01-15T08:41:12;21.85;;;6.95;;
53010;SDS011;42803;55.762;38.084;2023-01-15T08:43:41;26.42;;;9.43;;
53010;SDS011;42803;55.762;38.084;2023-01-15T08:46:12;19.08;;;7.35;;
53010;SDS011;42803;55.762;38.084;2023-01-15T08:48:41;16.65;;;6.95;;
53010;SDS011;42803;55.762;38.084;2023-01-15T08:51:11;18.85;;;6.95;;
53010;SDS011;42803;55.762;38.084;2023-01-15T08:53:40;14.18;;;5.90;;
53010;SDS011;42803;55.762;38.084;2023-01-15T08:56:11;21.00;;;7.55;;
53010;SDS011;42803;55.762;38.084;2023-01-15T08:58:43;17.23;;;7.53;;
53010;SDS011;42803;55.762;38.084;2023-01-15T09:01:13;15.07;;;7.43;;
53010;SDS011;42803;55.762;38.084;2023-01-15T09:03:42;15.50;;;7.13;;
53010;SDS011;42803;55.762;38.084;2023-01-15T09:06:12;16.35;;;7.22;;
53010;SDS011;42803;55.762;38.084;2023-01-15T09:08:41;14.77;;;5.30;;
53010;SDS011;42803;55.762;38.084;2023-01-15T09:11:11;13.02;;;6.03;;
53010;SDS011;42803;55.762;38.084;2023-01-15T09:13:41;12.10;;;6.28;;
53010;SDS011;42803;55.762;38.084;2023-01-15T09:16:12;20.67;;;7.68;;
53010;SDS011;42803;55.762;38.084;2023-01-15T09:18:43;16.75;;;6.85;;
53010;SDS011;42803;55.762;38.084;2023-01-15T09:21:13;12.40;;;6.22;;
53010;SDS011;42803;55.762;38.084;2023-01-15T09:23:42;15.82;;;8.18;;
53010;SDS011;42803;55.762;38.084;2023-01-15T09:26:25;11.43;;;6.32;;
53010;SDS011;42803;55.762;38.084;2023-01-15T09:28:56;14.25;;;6.88;;
53010;SDS011;42803;55.762;38.084;2023-01-15T09:31:26;17.55;;;7.38;;
53010;SDS011;42803;55.762;38.084;2023-01-15T09:33:56;18.23;;;7.07;;
53010;SDS011;42803;55.762;38.084;2023-01-15T09:36:26;15.75;;;6.80;;
53010;SDS011;42803;55.762;38.084;2023-01-15T09:38:56;12.65;;;6.38;;
53010;SDS011;42803;55.762;38.084;2023-01-15T09:41:29;14.75;;;6.07;;
53010;SDS011;42803;55.762;38.084;2023-01-15T09:44:32;17.95;;;7.60;;
53010;SDS011;42803;55.762;38.084;2023-01-15T09:47:17;14.15;;;6.53;;
53010;SDS011;42803;55.762;38.084;2023-01-15T09:49:59;11.65;;;5.53;;
53010;SDS011;42803;55.762;38.084;2023-01-15T09:52:49;15.35;;;6.05;;
53010;SDS011;42803;55.762;38.084;2023-01-15T09:55:30;14.55;;;5.70;;
53010;SDS011;42803;55.762;38.084;2023-01-15T09:58:02;11.70;;;6.40;;
53010;SDS011;42803;55.762;38.084;2023-01-15T10:00:34;11.68;;;6.25;;
53010;SDS011;42803;55.762;38.084;2023-01-15T10:03:11;12.45;;;6.25;;
53010;SDS011;42803;55.762;38.084;2023-01-15T10:05:52;12.45;;;6.50;;
53010;SDS011;42803;55.762;38.084;2023-01-15T10:08:28;10.85;;;5.97;;
53010;SDS011;42803;55.762;38.084;2023-01-15T10:11:01;11.02;;;5.65;;
53010;SDS011;42803;55.762;38.084;2023-01-15T10:13:36;14.00;;;6.25;;
53010;SDS011;42803;55.762;38.084;2023-01-15T10:16:11;12.10;;;5.57;;
53010;SDS011;42803;55.762;38.084;2023-01-15T10:18:46;17.17;;;7.18;;
53010;SDS011;42803;55.762;38.084;2023-01-15T10:21:18;18.27;;;7.05;;
53010;SDS011;42803;55.762;38.084;2023-01-15T10:24:00;19.85;;;7.03;;
53010;SDS011;42803;55.762;38.084;2023-01-15T10:26:34;25.40;;;6.90;;
53010;SDS011;42803;55.762;38.084;2023-01-15T10:29:11;16.27;;;6.60;;
53010;SDS011;42803;55.762;38.084;2023-01-15T10:31:48;15.18;;;5.72;;
53010;SDS011;42803;55.762;38.084;2023-01-15T10:37:28;13.73;;;6.15;;
53010;SDS011;42803;55.762;38.084;2023-01-15T10:40:11;14.77;;;6.50;;
53010;SDS011;42803;55.762;38.084;2023-01-15T10:42:51;14.32;;;5.90;;
53010;SDS011;42803;55.762;38.084;2023-01-15T10:45:28;16.02;;;5.93;;
53010;SDS011;42803;55.762;38.084;2023-01-15T10:48:03;13.68;;;5.65;;
53010;SDS011;42803;55.762;38.084;2023-01-15T10:50:37;15.73;;;5.20;;
53010;SDS011;42803;55.762;38.084;2023-01-15T10:53:10;12.85;;;6.03;;
53010;SDS011;42803;55.762;38.084;2023-01-15T10:55:45;15.32;;;5.20;;
53010;SDS011;42803;55.762;38.084;2023-01-15T10:58:20;13.75;;;5.80;;
53010;SDS011;42803;55.762;38.084;2023-01-15T11:00:57;19.05;;;5.95;;
53010;SDS011;42803;55.762;38.084;2023-01-15T11:03:34;15.20;;;5.95;;
53010;SDS011;42803;55.762;38.084;2023-01-15T11:06:06;15.40;;;6.35;;
53010;SDS011;42803;55.762;38.084;2023-01-15T11:08:44;15.30;;;5.95;;
53010;SDS011;42803;55.762;38.084;2023-01-15T11:11:37;16.23;;;6.15;;
53010;SDS011;42803;55.762;38.084;2023-01-15T11:14:35;16.13;;;5.63;;
53010;SDS011;42803;55.762;38.084;2023-01-15T11:17:25;16.92;;;5.95;;
53010;SDS011;42803;55.762;38.084;2023-01-15T11:20:19;13.48;;;5.65;;
53010;SDS011;42803;55.762;38.084;2023-01-15T11:22:53;16.23;;;6.20;;
53010;SDS011;42803;55.762;38.084;2023-01-15T11:25:24;11.98;;;5.93;;
53010;SDS011;42803;55.762;38.084;2023-01-15T11:27:56;13.43;;;6.07;;
53010;SDS011;42803;55.762;38.084;2023-01-15T11:30:29;22.05;;;6.05;;
53010;SDS011;42803;55.762;38.084;2023-01-15T11:33:02;16.45;;;5.97;;
53010;SDS011;42803;55.762;38.084;2023-01-15T11:35:33;21.85;;;6.20;;
53010;SDS011;42803;55.762;38.084;2023-01-15T11:38:03;18.35;;;6.25;;
53010;SDS011;42803;55.762;38.084;2023-01-15T11:40:35;12.27;;;5.97;;
53010;SDS011;42803;55.762;38.084;2023-01-15T11:43:14;12.23;;;5.05;;
53010;SDS011;42803;55.762;38.084;2023-01-15T11:46:05;13.07;;;5.25;;
53010;SDS011;42803;55.762;38.084;2023-01-15T11:49:07;12.98;;;5.57;;
53010;SDS011;42803;55.762;38.084;2023-01-15T11:51:54;18.60;;;6.95;;
53010;SDS011;42803;55.762;38.084;2023-01-15T11:54:26;14.48;;;5.55;;
53010;SDS011;42803;55.762;38.084;2023-01-15T11:56:57;14.43;;;5.95;;
53010;SDS011;42803;55.762;38.084;2023-01-15T11:59:26;10.73;;;5.10;;
53010;SDS011;42803;55.762;38.084;2023-01-15T12:01:57;12.32;;;5.63;;
53010;SDS011;42803;55.762;38.084;2023-01-15T12:04:35;12.02;;;5.35;;
53010;SDS011;42803;55.762;38.084;2023-01-15T12:07:12;13.18;;;5.40;;
53010;SDS011;42803;55.762;38.084;2023-01-15T12:09:59;13.38;;;4.95;;
53010;SDS011;42803;55.762;38.084;2023-01-15T12:12:48;11.50;;;5.40;;
53010;SDS011;42803;55.762;38.084;2023-01-15T12:15:31;16.42;;;5.00;;
53010;SDS011;42803;55.762;38.084;2023-01-15T12:18:20;13.80;;;6.25;;
53010;SDS011;42803;55.762;38.084;2023-01-15T12:21:03;12.65;;;5.38;;
53010;SDS011;42803;55.762;38.084;2023-01-15T12:26:13;13.40;;;4.43;;
53010;SDS011;42803;55.762;38.084;2023-01-15T12:28:49;14.18;;;5.10;;
53010;SDS011;42803;55.762;38.084;2023-01-15T12:31:26;10.23;;;4.72;;
53010;SDS011;42803;55.762;38.084;2023-01-15T12:34:00;13.48;;;4.80;;
53010;SDS011;42803;55.762;38.084;2023-01-15T12:36:37;12.43;;;4.57;;
53010;SDS011;42803;55.762;38.084;2023-01-15T12:39:16;12.00;;;4.70;;
53010;SDS011;42803;55.762;38.084;2023-01-15T12:41:51;12.23;;;5.10;;
53010;SDS011;42803;55.762;38.084;2023-01-15T12:44:40;13.57;;;4.57;;
53010;SDS011;42803;55.762;38.084;2023-01-15T12:47:34;9.25;;;4.25;;
53010;SDS011;42803;55.762;38.084;2023-01-15T12:53:05;10.45;;;4.78;;
53010;SDS011;42803;55.762;38.084;2023-01-15T12:55:41;6.55;;;3.53;;
53010;SDS011;42803;55.762;38.084;2023-01-15T12:58:20;10.13;;;4.15;;
53010;SDS011;42803;55.762;38.084;2023-01-15T13:01:02;8.65;;;3.85;;
53010;SDS011;42803;55.762;38.084;2023-01-15T13:03:44;8.25;;;4.10;;
53010;SDS011;42803;55.762;38.084;2023-01-15T13:06:19;9.55;;;3.85;;
53010;SDS011;42803;55.762;38.084;2023-01-15T13:08:57;15.82;;;4.15;;
53010;SDS011;42803;55.762;38.084;2023-01-15T13:11:31;14.57;;;3.83;;
53010;SDS011;42803;55.762;38.084;2023-01-15T13:14:00;10.82;;;3.72;;
53010;SDS011;42803;55.762;38.084;2023-01-15T13:16:34;9.75;;;4.30;;
53010;SDS011;42803;55.762;38.084;2023-01-15T13:19:15;9.75;;;3.92;;
53010;SDS011;42803;55.762;38.084;2023-01-15T13:21:53;17.13;;;5.03;;
53010;SDS011;42803;55.762;38.084;2023-01-15T13:24:38;7.32;;;3.60;;
53010;SDS011;42803;55.762;38.084;2023-01-15T13:27:31;10.57;;;4.03;;
53010;SDS011;42803;55.762;38.084;2023-01-15T13:30:19;10.85;;;4.28;;
53010;SDS011;42803;55.762;38.084;2023-01-15T13:35:32;13.85;;;4.30;;
53010;SDS011;42803;55.762;38.084;2023-01-15T13:38:05;10.77;;;4.53;;
53010;SDS011;42803;55.762;38.084;2023-01-15T13:40:43;13.20;;;4.45;;
53010;SDS011;42803;55.762;38.084;2023-01-15T13:43:23;8.20;;;4.68;;
53010;SDS011;42803;55.762;38.084;2023-01-15T13:45:57;10.25;;;4.32;;
53010;SDS011;42803;55.762;38.084;2023-01-15T13:48:30;13.48;;;5.20;;
53010;SDS011;42803;55.762;38.084;2023-01-15T13:51:03;12.55;;;5.32;;
53010;SDS011;42803;55.762;38.084;2023-01-15T13:53:34;14.45;;;5.35;;
53010;SDS011;42803;55.762;38.084;2023-01-15T13:56:09;10.05;;;4.32;;
53010;SDS011;42803;55.762;38.084;2023-01-15T13:58:50;11.15;;;4.45;;
53010;SDS011;42803;55.762;38.084;2023-01-15T14:01:22;10.93;;;4.57;;
53010;SDS011;42803;55.762;38.084;2023-01-15T14:03:54;11.07;;;4.90;;
53010;SDS011;42803;55.762;38.084;2023-01-15T14:06:34;11.48;;;5.30;;
53010;SDS011;42803;55.762;38.084;2023-01-15T14:09:09;16.13;;;5.28;;
53010;SDS011;42803;55.762;38.084;2023-01-15T14:11:44;13.07;;;5.03;;
53010;SDS011;42803;55.762;38.084;2023-01-15T14:14:32;11.45;;;4.90;;
53010;SDS011;42803;55.762;38.084;2023-01-15T14:17:27;12.38;;;5.10;;
53010;SDS011;42803;55.762;38.084;2023-01-15T14:20:25;13.75;;;5.35;;
53010;SDS011;42803;55.762;38.084;2023-01-15T14:23:10;13.10;;;4.93;;
53010;SDS011;42803;55.762;38.084;2023-01-15T14:25:50;10.20;;;4.47;;
53010;SDS011;42803;55.762;38.084;2023-01-15T14:28:42;13.85;;;4.43;;
53010;SDS011;42803;55.762;38.084;2023-01-15T14:34:27;14.75;;;4.50;;
53010;SDS011;42803;55.762;38.084;2023-01-15T14:36:57;14.38;;;4.88;;
53010;SDS011;42803;55.762;38.084;2023-01-15T14:39:35;11.00;;;5.15;;
53010;SDS011;42803;55.762;38.084;2023-01-15T14:42:10;13.40;;;5.55;;
53010;SDS011;42803;55.762;38.084;2023-01-15T14:45:04;8.52;;;4.72;;
53010;SDS011;42803;55.762;38.084;2023-01-15T14:47:41;13.57;;;4.85;;
53010;SDS011;42803;55.762;38.084;2023-01-15T14:50:24;10.27;;;5.05;;
53010;SDS011;42803;55.762;38.084;2023-01-15T14:53:04;12.00;;;4.50;;
53010;SDS011;42803;55.762;38.084;2023-01-15T14:55:45;11.52;;;5.20;;
53010;SDS011;42803;55.762;38.084;2023-01-15T14:58:21;11.35;;;5.30;;
53010;SDS011;42803;55.762;38.084;2023-01-15T15:01:09;11.10;;;4.97;;
53010;SDS011;42803;55.762;38.084;2023-01-15T15:03:49;10.00;;;4.30;;
53010;SDS011;42803;55.762;38.084;2023-01-15T15:06:22;12.85;;;4.82;;
53010;SDS011;42803;55.762;38.084;2023-01-15T15:08:53;12.82;;;5.32;;
53010;SDS011;42803;55.762;38.084;2023-01-15T15:11:31;10.30;;;4.82;;
53010;SDS011;42803;55.762;38.084;2023-01-15T15:14:23;11.07;;;5.47;;
53010;SDS011;42803;55.762;38.084;2023-01-15T15:16:57;12.35;;;5.22;;
53010;SDS011;42803;55.762;38.084;2023-01-15T15:19:29;7.50;;;3.85;;
53010;SDS011;42803;55.762;38.084;2023-01-15T15:22:03;9.52;;;4.93;;
53010;SDS011;42803;55.762;38.084;2023-01-15T15:24:41;13.68;;;4.38;;